createdAt,value
2018-03-14T00:00:41.667Z,0
2018-03-14T00:01:42.316Z,0
2018-03-14T00:02:42.679Z,0
2018-03-14T00:03:41.897Z,0
2018-03-14T00:04:42.090Z,0
2018-03-14T00:05:42.124Z,0
2018-03-14T00:06:41.826Z,0
2018-03-14T00:07:41.515Z,0
2018-03-14T00:08:41.765Z,0
2018-03-14T00:09:41.776Z,0
2018-03-14T00:10:42.389Z,0
2018-03-14T00:11:42.313Z,0
2018-03-14T00:12:41.980Z,0
2018-03-14T00:13:41.115Z,0
2018-03-14T00:14:41.383Z,0
2018-03-14T00:15:41.643Z,0
2018-03-14T00:16:41.901Z,0
2018-03-14T00:17:42.113Z,0
2018-03-14T00:18:42.579Z,0
2018-03-14T00:19:41.819Z,0
2018-03-14T00:20:41.522Z,0
2018-03-14T00:21:41.509Z,0
2018-03-14T00:22:41.511Z,0
2018-03-14T00:23:41.772Z,0
2018-03-14T00:24:41.166Z,0
2018-03-14T00:25:40.868Z,0
2018-03-14T00:26:41.710Z,0
2018-03-14T00:27:41.696Z,0
2018-03-14T00:28:41.364Z,0
2018-03-14T00:29:41.922Z,0
2018-03-14T00:30:41.612Z,0
2018-03-14T00:31:41.579Z,0
2018-03-14T00:32:41.284Z,0
2018-03-14T00:33:41.845Z,0
2018-03-14T00:34:41.240Z,0
2018-03-14T00:35:40.952Z,0
2018-03-14T00:36:41.765Z,0
2018-03-14T00:37:41.192Z,0
2018-03-14T00:38:41.753Z,0
2018-03-14T00:39:41.483Z,0
2018-03-14T00:40:40.842Z,0
2018-03-14T00:41:41.872Z,0
2018-03-14T00:42:41.380Z,0
2018-03-14T00:43:41.361Z,0
2018-03-14T00:44:41.070Z,0
2018-03-14T00:45:41.323Z,0
2018-03-14T00:46:41.007Z,0
2018-03-14T00:47:40.693Z,0
2018-03-14T00:48:41.308Z,0
2018-03-14T00:49:41.637Z,0
2018-03-14T00:50:40.923Z,0
2018-03-14T00:51:40.950Z,0
2018-03-14T00:52:40.594Z,0
2018-03-14T00:53:41.157Z,0
2018-03-14T00:54:40.275Z,0
2018-03-14T00:55:41.127Z,0
2018-03-14T00:56:41.041Z,0
2018-03-14T00:57:41.729Z,0
2018-03-14T00:58:40.741Z,0
2018-03-14T00:59:40.468Z,0
2018-03-14T01:00:40.701Z,0
2018-03-14T01:01:40.988Z,0
2018-03-14T01:02:40.113Z,0
2018-03-14T01:03:40.937Z,0
2018-03-14T01:04:42.130Z,0
2018-03-14T01:05:40.895Z,0
2018-03-14T01:06:40.887Z,0
2018-03-14T01:07:40.850Z,0
2018-03-14T01:08:40.835Z,0
2018-03-14T01:09:40.245Z,0
2018-03-14T01:10:40.853Z,0
2018-03-14T01:11:41.195Z,0
2018-03-14T01:12:41.179Z,0
2018-03-14T01:13:40.745Z,0
2018-03-14T01:14:40.725Z,0
2018-03-14T01:15:40.986Z,0
2018-03-14T01:16:40.373Z,0
2018-03-14T01:17:40.649Z,0
2018-03-14T01:18:40.641Z,0
2018-03-14T01:19:40.693Z,0
2018-03-14T01:20:42.491Z,0
2018-03-14T01:21:40.015Z,0
2018-03-14T01:22:39.991Z,0
2018-03-14T01:23:39.961Z,0
2018-03-14T01:24:40.209Z,0
2018-03-14T01:25:40.249Z,0
2018-03-14T01:26:40.470Z,0
2018-03-14T01:27:41.961Z,0
2018-03-14T01:28:40.156Z,0
2018-03-14T01:29:40.165Z,0
2018-03-14T01:30:40.117Z,0
2018-03-14T01:31:39.813Z,0
2018-03-14T01:32:40.318Z,0
2018-03-14T01:33:40.319Z,0
2018-03-14T01:34:40.406Z,0
2018-03-14T01:35:41.522Z,0
2018-03-14T01:36:41.231Z,0
2018-03-14T01:37:40.238Z,0
2018-03-14T01:38:39.371Z,0
2018-03-14T01:39:39.908Z,0
2018-03-14T01:40:39.887Z,0
2018-03-14T01:41:40.456Z,0
2018-03-14T01:42:40.411Z,0
2018-03-14T01:43:40.935Z,0
2018-03-14T01:44:40.036Z,0
2018-03-14T01:45:40.128Z,0
2018-03-14T01:46:39.484Z,0
2018-03-14T01:47:39.745Z,0
2018-03-14T01:48:39.440Z,0
2018-03-14T01:49:40.014Z,0
2018-03-14T01:50:39.687Z,0
2018-03-14T01:51:39.106Z,0
2018-03-14T01:52:39.652Z,0
2018-03-14T01:53:39.917Z,0
2018-03-14T01:54:39.361Z,0
2018-03-14T01:55:39.302Z,0
2018-03-14T01:56:39.284Z,0
2018-03-14T01:57:39.268Z,0
2018-03-14T01:58:41.369Z,0
2018-03-14T01:59:39.489Z,0
2018-03-14T02:00:39.200Z,0
2018-03-14T02:01:39.773Z,0
2018-03-14T02:02:40.013Z,0
2018-03-14T02:03:39.449Z,0
2018-03-14T02:04:39.395Z,0
2018-03-14T02:05:39.093Z,0
2018-03-14T02:06:41.053Z,0
2018-03-14T02:07:39.074Z,0
2018-03-14T02:08:39.031Z,0
2018-03-14T02:09:39.022Z,0
2018-03-14T02:10:39.286Z,0
2018-03-14T02:11:39.550Z,0
2018-03-14T02:12:39.535Z,0
2018-03-14T02:13:38.932Z,0
2018-03-14T02:14:38.922Z,0
2018-03-14T02:15:38.901Z,0
2018-03-14T02:16:39.420Z,0
2018-03-14T02:17:39.128Z,0
2018-03-14T02:18:39.396Z,0
2018-03-14T02:19:39.103Z,0
2018-03-14T02:20:38.792Z,0
2018-03-14T02:21:39.572Z,0
2018-03-14T02:22:38.750Z,0
2018-03-14T02:23:38.997Z,0
2018-03-14T02:24:38.995Z,0
2018-03-14T02:25:39.587Z,0
2018-03-14T02:26:38.976Z,0
2018-03-14T02:27:39.218Z,0
2018-03-14T02:28:38.916Z,0
2018-03-14T02:29:39.335Z,0
2018-03-14T02:30:39.166Z,0
2018-03-14T02:31:39.134Z,0
2018-03-14T02:32:39.108Z,0
2018-03-14T02:33:38.532Z,0
2018-03-14T02:34:38.789Z,0
2018-03-14T02:35:38.754Z,0
2018-03-14T02:36:38.897Z,0
2018-03-14T02:37:40.665Z,0
2018-03-14T02:38:38.721Z,0
2018-03-14T02:39:38.951Z,0
2018-03-14T02:40:38.664Z,0
2018-03-14T02:41:38.648Z,0
2018-03-14T02:42:38.338Z,0
2018-03-14T02:43:38.340Z,0
2018-03-14T02:44:40.380Z,0
2018-03-14T02:45:38.264Z,0
2018-03-14T02:46:38.764Z,0
2018-03-14T02:47:38.221Z,0
2018-03-14T02:48:38.466Z,0
2018-03-14T02:49:38.750Z,0
2018-03-14T02:50:38.947Z,0
2018-03-14T02:51:38.938Z,0
2018-03-14T02:52:38.687Z,0
2018-03-14T02:53:37.834Z,0
2018-03-14T02:54:38.344Z,0
2018-03-14T02:55:38.320Z,0
2018-03-14T02:56:37.767Z,0
2018-03-14T02:57:38.008Z,0
2018-03-14T02:58:38.787Z,0
2018-03-14T02:59:38.241Z,0
2018-03-14T03:00:38.218Z,0
2018-03-14T03:01:38.456Z,0
2018-03-14T03:02:38.444Z,0
2018-03-14T03:03:38.424Z,0
2018-03-14T03:04:38.138Z,0
2018-03-14T03:05:38.116Z,0
2018-03-14T03:06:37.832Z,0
2018-03-14T03:07:37.808Z,0
2018-03-14T03:08:38.325Z,0
2018-03-14T03:09:38.560Z,0
2018-03-14T03:10:38.011Z,0
2018-03-14T03:11:37.993Z,0
2018-03-14T03:12:37.975Z,0
2018-03-14T03:13:38.220Z,0
2018-03-14T03:14:37.928Z,0
2018-03-14T03:15:37.907Z,0
2018-03-14T03:16:37.624Z,0
2018-03-14T03:17:37.875Z,0
2018-03-14T03:18:37.841Z,0
2018-03-14T03:19:38.356Z,0
2018-03-14T03:20:37.542Z,0
2018-03-14T03:21:38.045Z,0
2018-03-14T03:22:38.033Z,0
2018-03-14T03:23:37.479Z,0
2018-03-14T03:24:37.992Z,0
2018-03-14T03:25:37.493Z,0
2018-03-14T03:26:37.419Z,0
2018-03-14T03:27:37.666Z,0
2018-03-14T03:28:37.642Z,0
2018-03-14T03:29:37.354Z,0
2018-03-14T03:30:37.351Z,0
2018-03-14T03:31:37.602Z,0
2018-03-14T03:32:37.839Z,0
2018-03-14T03:33:37.546Z,0
2018-03-14T03:34:37.789Z,0
2018-03-14T03:35:37.498Z,0
2018-03-14T03:36:37.481Z,0
2018-03-14T03:37:37.772Z,0
2018-03-14T03:38:37.963Z,0
2018-03-14T03:39:37.675Z,0
2018-03-14T03:40:36.865Z,0
2018-03-14T03:41:37.636Z,0
2018-03-14T03:42:37.617Z,0
2018-03-14T03:43:37.331Z,0
2018-03-14T03:44:38.055Z,0
2018-03-14T03:45:37.037Z,0
2018-03-14T03:46:37.010Z,0
2018-03-14T03:47:37.256Z,0
2018-03-14T03:48:37.495Z,0
2018-03-14T03:49:37.477Z,0
2018-03-14T03:50:37.193Z,0
2018-03-14T03:51:37.438Z,0
2018-03-14T03:52:36.889Z,0
2018-03-14T03:53:37.213Z,0
2018-03-14T03:54:36.846Z,0
2018-03-14T03:55:37.350Z,0
2018-03-14T03:56:36.814Z,0
2018-03-14T03:57:36.517Z,0
2018-03-14T03:58:37.036Z,0
2018-03-14T03:59:37.015Z,0
2018-03-14T04:00:37.054Z,0
2018-03-14T04:01:36.956Z,0
2018-03-14T04:02:36.948Z,0
2018-03-14T04:03:37.196Z,0
2018-03-14T04:04:37.161Z,0
2018-03-14T04:05:36.618Z,0
2018-03-14T04:06:36.862Z,0
2018-03-14T04:07:36.575Z,0
2018-03-14T04:08:36.832Z,0
2018-03-14T04:09:36.806Z,0
2018-03-14T04:10:36.525Z,0
2018-03-14T04:11:36.497Z,0
2018-03-14T04:12:36.736Z,0
2018-03-14T04:13:36.719Z,0
2018-03-14T04:14:36.786Z,0
2018-03-14T04:15:36.940Z,0
2018-03-14T04:16:37.224Z,0
2018-03-14T04:17:36.640Z,0
2018-03-14T04:18:36.082Z,0
2018-03-14T04:19:36.332Z,0
2018-03-14T04:20:36.311Z,0
2018-03-14T04:21:36.589Z,0
2018-03-14T04:22:36.268Z,0
2018-03-14T04:23:36.781Z,0
2018-03-14T04:24:36.758Z,0
2018-03-14T04:25:36.741Z,0
2018-03-14T04:26:36.181Z,0
2018-03-14T04:27:36.433Z,0
2018-03-14T04:28:36.404Z,0
2018-03-14T04:29:36.647Z,0
2018-03-14T04:30:36.633Z,0
2018-03-14T04:31:36.420Z,0
2018-03-14T04:32:36.860Z,0
2018-03-14T04:33:35.775Z,0
2018-03-14T04:34:36.021Z,0
2018-03-14T04:35:36.299Z,0
2018-03-14T04:36:36.252Z,0
2018-03-14T04:37:36.489Z,0
2018-03-14T04:38:36.474Z,0
2018-03-14T04:39:36.456Z,0
2018-03-14T04:40:36.166Z,0
2018-03-14T04:41:36.402Z,0
2018-03-14T04:42:36.121Z,0
2018-03-14T04:43:36.108Z,0
2018-03-14T04:44:36.081Z,0
2018-03-14T04:45:35.799Z,0
2018-03-14T04:46:36.038Z,0
2018-03-14T04:47:36.025Z,0
2018-03-14T04:48:36.540Z,0
2018-03-14T04:49:35.984Z,0
2018-03-14T04:50:35.970Z,0
2018-03-14T04:51:35.673Z,0
2018-03-14T04:52:36.185Z,0
2018-03-14T04:53:35.892Z,0
2018-03-14T04:54:36.147Z,0
2018-03-14T04:55:35.859Z,0
2018-03-14T04:56:35.571Z,0
2018-03-14T04:57:35.555Z,0
2018-03-14T04:58:36.062Z,0
2018-03-14T04:59:35.776Z,0
2018-03-14T05:00:35.752Z,0
2018-03-14T05:01:35.737Z,0
2018-03-14T05:02:35.974Z,0
2018-03-14T05:03:35.966Z,0
2018-03-14T05:04:35.942Z,0
2018-03-14T05:05:35.653Z,0
2018-03-14T05:06:35.364Z,0
2018-03-14T05:07:36.053Z,0
2018-03-14T05:08:35.598Z,0
2018-03-14T05:09:35.570Z,0
2018-03-14T05:10:35.553Z,0
2018-03-14T05:11:35.799Z,0
2018-03-14T05:12:35.772Z,0
2018-03-14T05:13:35.747Z,0
2018-03-14T05:14:35.245Z,0
2018-03-14T05:15:35.706Z,0
2018-03-14T05:16:35.425Z,0
2018-03-14T05:17:35.676Z,0
2018-03-14T05:18:35.385Z,0
2018-03-14T05:19:35.367Z,0
2018-03-14T05:20:35.083Z,0
2018-03-14T05:21:35.063Z,0
2018-03-14T05:22:35.039Z,0
2018-03-14T05:23:35.553Z,0
2018-03-14T05:24:35.530Z,0
2018-03-14T05:25:35.240Z,0
2018-03-14T05:26:35.492Z,0
2018-03-14T05:27:35.203Z,0
2018-03-14T05:28:35.180Z,0
2018-03-14T05:29:34.889Z,0
2018-03-14T05:30:35.142Z,0
2018-03-14T05:31:34.588Z,0
2018-03-14T05:32:35.107Z,0
2018-03-14T05:33:34.816Z,0
2018-03-14T05:34:35.192Z,0
2018-03-14T05:35:35.300Z,0
2018-03-14T05:36:35.288Z,0
2018-03-14T05:37:34.464Z,0
2018-03-14T05:38:35.516Z,0
2018-03-14T05:39:35.218Z,0
2018-03-14T05:40:35.257Z,0
2018-03-14T05:41:34.917Z,0
2018-03-14T05:42:34.632Z,0
2018-03-14T05:43:34.611Z,0
2018-03-14T05:44:36.057Z,0
2018-03-14T05:45:34.303Z,0
2018-03-14T05:46:34.816Z,0
2018-03-14T05:47:35.056Z,0
2018-03-14T05:48:34.770Z,0
2018-03-14T05:49:35.019Z,0
2018-03-14T05:50:34.731Z,0
2018-03-14T05:51:34.709Z,0
2018-03-14T05:52:34.954Z,0
2018-03-14T05:53:34.943Z,0
2018-03-14T05:54:34.976Z,0
2018-03-14T05:55:34.915Z,0
2018-03-14T05:56:34.625Z,5
2018-03-14T05:57:34.880Z,5
2018-03-14T05:58:34.883Z,5
2018-03-14T05:59:34.562Z,5
2018-03-14T06:00:34.540Z,5
2018-03-14T06:01:34.779Z,5
2018-03-14T06:02:34.229Z,5
2018-03-14T06:03:34.734Z,5
2018-03-14T06:04:34.452Z,5
2018-03-14T06:05:34.480Z,5
2018-03-14T06:06:33.878Z,5
2018-03-14T06:07:34.651Z,5
2018-03-14T06:08:34.368Z,5
2018-03-14T06:09:34.343Z,5
2018-03-14T06:10:34.734Z,10
2018-03-14T06:11:34.306Z,10
2018-03-14T06:12:34.018Z,10
2018-03-14T06:13:33.725Z,10
2018-03-14T06:14:34.242Z,10
2018-03-14T06:15:34.219Z,15
2018-03-14T06:16:34.476Z,15
2018-03-14T06:17:33.918Z,15
2018-03-14T06:18:34.432Z,15
2018-03-14T06:19:33.613Z,15
2018-03-14T06:20:34.647Z,20
2018-03-14T06:21:33.844Z,20
2018-03-14T06:22:34.085Z,20
2018-03-14T06:23:33.794Z,20
2018-03-14T06:24:34.348Z,25
2018-03-14T06:25:34.299Z,25
2018-03-14T06:26:33.741Z,25
2018-03-14T06:27:34.254Z,30
2018-03-14T06:28:33.960Z,30
2018-03-14T06:29:33.937Z,30
2018-03-14T06:30:34.177Z,30
2018-03-14T06:31:33.898Z,30
2018-03-14T06:32:33.874Z,30
2018-03-14T06:33:34.120Z,30
2018-03-14T06:34:33.833Z,30
2018-03-14T06:35:34.076Z,30
2018-03-14T06:36:34.059Z,30
2018-03-14T06:37:33.511Z,35
2018-03-14T06:38:34.296Z,35
2018-03-14T06:39:33.729Z,35
2018-03-14T06:40:34.245Z,40
2018-03-14T06:41:33.422Z,40
2018-03-14T06:42:33.407Z,40
2018-03-14T06:43:33.644Z,40
2018-03-14T06:44:33.362Z,45
2018-03-14T06:45:33.881Z,55
2018-03-14T06:46:33.853Z,60
2018-03-14T06:47:33.836Z,60
2018-03-14T06:48:33.872Z,60
2018-03-14T06:49:33.263Z,65
2018-03-14T06:50:33.304Z,65
2018-03-14T06:51:33.226Z,65
2018-03-14T06:52:33.477Z,70
2018-03-14T06:53:33.721Z,70
2018-03-14T06:54:33.693Z,75
2018-03-14T06:55:33.141Z,75
2018-03-14T06:56:33.920Z,80
2018-03-14T06:57:33.645Z,80
2018-03-14T06:58:33.103Z,80
2018-03-14T06:59:32.803Z,80
2018-03-14T07:00:33.329Z,80
2018-03-14T07:01:33.288Z,80
2018-03-14T07:02:33.531Z,80
2018-03-14T07:03:33.512Z,80
2018-03-14T07:04:33.764Z,80
2018-03-14T07:05:33.208Z,80
2018-03-14T07:06:33.454Z,80
2018-03-14T07:07:33.437Z,80
2018-03-14T07:08:33.143Z,85
2018-03-14T07:09:32.860Z,85
2018-03-14T07:10:33.373Z,85
2018-03-14T07:11:33.356Z,85
2018-03-14T07:12:32.806Z,80
2018-03-14T07:13:32.786Z,85
2018-03-14T07:14:33.023Z,90
2018-03-14T07:15:32.748Z,95
2018-03-14T07:16:32.720Z,100
2018-03-14T07:17:33.636Z,100
2018-03-14T07:18:33.212Z,100
2018-03-14T07:19:32.932Z,105
2018-03-14T07:20:32.912Z,105
2018-03-14T07:21:32.896Z,105
2018-03-14T07:22:33.142Z,105
2018-03-14T07:23:33.117Z,105
2018-03-14T07:24:32.564Z,105
2018-03-14T07:25:33.346Z,105
2018-03-14T07:26:32.787Z,105
2018-03-14T07:27:32.765Z,105
2018-03-14T07:28:33.064Z,110
2018-03-14T07:29:32.200Z,115
2018-03-14T07:30:32.983Z,120
2018-03-14T07:31:32.950Z,125
2018-03-14T07:32:32.671Z,130
2018-03-14T07:33:33.186Z,135
2018-03-14T07:34:32.365Z,135
2018-03-14T07:35:32.342Z,135
2018-03-14T07:36:32.391Z,135
2018-03-14T07:37:32.308Z,140
2018-03-14T07:38:32.815Z,150
2018-03-14T07:39:32.808Z,150
2018-03-14T07:40:32.778Z,150
2018-03-14T07:41:32.497Z,150
2018-03-14T07:42:32.737Z,150
2018-03-14T07:43:32.719Z,155
2018-03-14T07:44:32.433Z,160
2018-03-14T07:45:32.348Z,160
2018-03-14T07:46:32.928Z,155
2018-03-14T07:47:32.906Z,160
2018-03-14T07:48:32.631Z,160
2018-03-14T07:49:32.608Z,165
2018-03-14T07:50:32.323Z,165
2018-03-14T07:51:32.035Z,165
2018-03-14T07:52:32.809Z,165
2018-03-14T07:53:31.997Z,165
2018-03-14T07:54:32.246Z,170
2018-03-14T07:55:32.218Z,170
2018-03-14T07:56:32.738Z,170
2018-03-14T07:57:32.190Z,170
2018-03-14T07:58:32.435Z,175
2018-03-14T07:59:32.153Z,180
2018-03-14T08:00:31.864Z,180
2018-03-14T08:01:32.104Z,180
2018-03-14T08:02:32.088Z,180
2018-03-14T08:03:32.334Z,185
2018-03-14T08:04:32.058Z,190
2018-03-14T08:05:32.035Z,200
2018-03-14T08:06:32.555Z,205
2018-03-14T08:07:32.258Z,210
2018-03-14T08:08:32.264Z,205
2018-03-14T08:09:31.699Z,205
2018-03-14T08:10:32.206Z,215
2018-03-14T08:11:31.966Z,225
2018-03-14T08:12:31.910Z,220
2018-03-14T08:13:32.930Z,225
2018-03-14T08:14:31.605Z,225
2018-03-14T08:15:31.586Z,225
2018-03-14T08:16:31.572Z,230
2018-03-14T08:17:31.280Z,225
2018-03-14T08:18:32.050Z,230
2018-03-14T08:19:31.781Z,235
2018-03-14T08:20:31.811Z,250
2018-03-14T08:21:32.047Z,260
2018-03-14T08:22:31.461Z,275
2018-03-14T08:23:31.730Z,285
2018-03-14T08:24:31.705Z,285
2018-03-14T08:25:31.937Z,285
2018-03-14T08:26:31.650Z,285
2018-03-14T08:27:31.635Z,305
2018-03-14T08:28:32.153Z,315
2018-03-14T08:29:31.602Z,310
2018-03-14T08:30:32.170Z,310
2018-03-14T08:31:31.594Z,290
2018-03-14T08:32:31.552Z,290
2018-03-14T08:33:31.789Z,285
2018-03-14T08:34:31.859Z,290
2018-03-14T08:35:31.491Z,320
2018-03-14T08:36:31.749Z,335
2018-03-14T08:37:31.200Z,290
2018-03-14T08:38:31.446Z,280
2018-03-14T08:39:31.967Z,280
2018-03-14T08:40:31.141Z,290
2018-03-14T08:41:31.186Z,295
2018-03-14T08:42:31.651Z,295
2018-03-14T08:43:31.685Z,295
2018-03-14T08:44:31.349Z,315
2018-03-14T08:45:31.070Z,330
2018-03-14T08:46:31.314Z,345
2018-03-14T08:47:31.036Z,420
2018-03-14T08:48:30.757Z,525
2018-03-14T08:49:31.274Z,340
2018-03-14T08:50:30.995Z,325
2018-03-14T08:51:30.981Z,330
2018-03-14T08:52:30.960Z,345
2018-03-14T08:53:31.208Z,360
2018-03-14T08:54:30.926Z,400
2018-03-14T08:55:30.914Z,365
2018-03-14T08:56:31.164Z,360
2018-03-14T08:57:30.616Z,335
2018-03-14T08:58:31.442Z,325
2018-03-14T08:59:31.191Z,360
2018-03-14T09:00:31.624Z,475
2018-03-14T09:01:31.618Z,355
2018-03-14T09:02:31.652Z,365
2018-03-14T09:03:31.321Z,500
2018-03-14T09:04:30.518Z,425
2018-03-14T09:05:31.032Z,420
2018-03-14T09:06:31.284Z,420
2018-03-14T09:07:31.067Z,400
2018-03-14T09:08:30.992Z,420
2018-03-14T09:09:30.699Z,485
2018-03-14T09:10:30.971Z,675
2018-03-14T09:11:30.938Z,780
2018-03-14T09:12:31.207Z,725
2018-03-14T09:13:30.647Z,725
2018-03-14T09:14:31.172Z,495
2018-03-14T09:15:31.156Z,460
2018-03-14T09:16:30.882Z,395
2018-03-14T09:17:31.121Z,385
2018-03-14T09:18:31.110Z,305
2018-03-14T09:19:30.573Z,250
2018-03-14T09:20:30.557Z,220
2018-03-14T09:21:30.874Z,210
2018-03-14T09:22:30.790Z,200
2018-03-14T09:23:31.306Z,200
2018-03-14T09:24:31.031Z,205
2018-03-14T09:25:30.493Z,220
2018-03-14T09:26:30.753Z,230
2018-03-14T09:27:30.292Z,255
2018-03-14T09:28:30.714Z,285
2018-03-14T09:29:30.977Z,295
2018-03-14T09:30:30.421Z,300
2018-03-14T09:31:30.686Z,295
2018-03-14T09:32:30.660Z,300
2018-03-14T09:33:30.915Z,305
2018-03-14T09:34:30.634Z,310
2018-03-14T09:35:30.878Z,325
2018-03-14T09:36:30.607Z,345
2018-03-14T09:37:30.602Z,355
2018-03-14T09:38:30.312Z,345
2018-03-14T09:39:30.568Z,345
2018-03-14T09:40:30.559Z,320
2018-03-14T09:41:30.802Z,290
2018-03-14T09:42:30.787Z,255
2018-03-14T09:43:30.516Z,225
2018-03-14T09:44:29.964Z,200
2018-03-14T09:45:30.952Z,190
2018-03-14T09:46:30.733Z,180
2018-03-14T09:47:30.463Z,170
2018-03-14T09:48:30.487Z,160
2018-03-14T09:49:30.161Z,150
2018-03-14T09:50:30.942Z,140
2018-03-14T09:51:30.771Z,135
2018-03-14T09:52:30.394Z,130
2018-03-14T09:53:30.367Z,125
2018-03-14T09:54:30.350Z,120
2018-03-14T09:55:30.598Z,120
2018-03-14T09:56:30.861Z,125
2018-03-14T09:57:30.573Z,125
2018-03-14T09:58:30.558Z,125
2018-03-14T09:59:30.283Z,130
2018-03-14T10:00:30.530Z,130
2018-03-14T10:01:30.516Z,135
2018-03-14T10:02:30.781Z,140
2018-03-14T10:03:30.481Z,140
2018-03-14T10:04:30.476Z,135
2018-03-14T10:05:29.932Z,140
2018-03-14T10:06:29.643Z,150
2018-03-14T10:07:29.900Z,150
2018-03-14T10:08:29.877Z,155
2018-03-14T10:09:29.861Z,160
2018-03-14T10:10:30.644Z,170
2018-03-14T10:11:30.625Z,180
2018-03-14T10:12:30.076Z,190
2018-03-14T10:13:30.061Z,205
2018-03-14T10:14:30.041Z,225
2018-03-14T10:15:30.355Z,245
2018-03-14T10:16:30.282Z,260
2018-03-14T10:17:30.260Z,275
2018-03-14T10:18:29.981Z,280
2018-03-14T10:19:29.966Z,300
2018-03-14T10:20:29.692Z,310
2018-03-14T10:21:29.934Z,310
2018-03-14T10:22:30.571Z,330
2018-03-14T10:23:30.169Z,355
2018-03-14T10:24:29.890Z,370
2018-03-14T10:25:29.681Z,385
2018-03-14T10:26:29.597Z,410
2018-03-14T10:27:29.590Z,465
2018-03-14T10:28:29.834Z,510
2018-03-14T10:29:30.143Z,440
2018-03-14T10:30:29.804Z,435
2018-03-14T10:31:29.791Z,485
2018-03-14T10:32:29.503Z,560
2018-03-14T10:33:29.586Z,545
2018-03-14T10:34:29.741Z,475
2018-03-14T10:35:30.255Z,525
2018-03-14T10:36:29.713Z,680
2018-03-14T10:37:29.965Z,875
2018-03-14T10:38:30.288Z,910
2018-03-14T10:39:29.934Z,700
2018-03-14T10:40:29.924Z,540
2018-03-14T10:41:29.653Z,615
2018-03-14T10:42:29.665Z,615
2018-03-14T10:43:30.155Z,525
2018-03-14T10:44:29.899Z,535
2018-03-14T10:45:29.328Z,545
2018-03-14T10:46:29.851Z,520
2018-03-14T10:47:29.837Z,495
2018-03-14T10:48:29.826Z,435
2018-03-14T10:49:29.361Z,415
2018-03-14T10:50:29.540Z,410
2018-03-14T10:51:29.263Z,420
2018-03-14T10:52:29.773Z,450
2018-03-14T10:53:29.506Z,465
2018-03-14T10:54:29.780Z,465
2018-03-14T10:55:30.035Z,470
2018-03-14T10:56:29.725Z,470
2018-03-14T10:57:29.712Z,545
2018-03-14T10:58:29.438Z,960
2018-03-14T10:59:29.421Z,1505
2018-03-14T11:00:29.153Z,1395
2018-03-14T11:01:29.934Z,1155
2018-03-14T11:02:29.923Z,1080
2018-03-14T11:03:29.112Z,1285
2018-03-14T11:04:29.419Z,1370
2018-03-14T11:05:29.359Z,1130
2018-03-14T11:06:29.886Z,1315
2018-03-14T11:07:29.083Z,1100
2018-03-14T11:08:29.344Z,1380
2018-03-14T11:09:29.378Z,1470
2018-03-14T11:10:29.371Z,615
2018-03-14T11:11:29.577Z,940
2018-03-14T11:12:29.568Z,620
2018-03-14T11:13:29.555Z,655
2018-03-14T11:14:29.559Z,465
2018-03-14T11:15:29.545Z,455
2018-03-14T11:16:29.842Z,465
2018-03-14T11:17:29.538Z,475
2018-03-14T11:18:29.269Z,465
2018-03-14T11:19:29.800Z,445
2018-03-14T11:20:29.354Z,455
2018-03-14T11:21:29.306Z,455
2018-03-14T11:22:29.497Z,420
2018-03-14T11:23:29.224Z,405
2018-03-14T11:24:29.215Z,430
2018-03-14T11:25:28.948Z,440
2018-03-14T11:26:29.736Z,445
2018-03-14T11:27:28.932Z,390
2018-03-14T11:28:29.185Z,400
2018-03-14T11:29:28.916Z,425
2018-03-14T11:30:29.170Z,435
2018-03-14T11:31:29.157Z,460
2018-03-14T11:32:28.619Z,495
2018-03-14T11:33:29.399Z,545
2018-03-14T11:34:29.675Z,610
2018-03-14T11:35:28.865Z,495
2018-03-14T11:36:29.107Z,435
2018-03-14T11:37:29.112Z,410
2018-03-14T11:38:29.098Z,405
2018-03-14T11:39:28.818Z,405
2018-03-14T11:40:29.346Z,400
2018-03-14T11:41:29.604Z,410
2018-03-14T11:42:28.866Z,460
2018-03-14T11:43:28.779Z,525
2018-03-14T11:44:29.309Z,675
2018-03-14T11:45:28.962Z,580
2018-03-14T11:46:29.011Z,730
2018-03-14T11:47:29.005Z,1530
2018-03-14T11:48:29.317Z,1550
2018-03-14T11:49:28.990Z,1405
2018-03-14T11:50:29.236Z,1615
2018-03-14T11:51:29.229Z,1860
2018-03-14T11:52:28.955Z,1740
2018-03-14T11:53:29.222Z,1700
2018-03-14T11:54:28.726Z,1665
2018-03-14T11:55:28.943Z,770
2018-03-14T11:56:29.203Z,1035
2018-03-14T11:57:28.973Z,880
2018-03-14T11:58:28.656Z,1255
2018-03-14T11:59:29.191Z,980
2018-03-14T12:00:28.645Z,1065
2018-03-14T12:01:28.650Z,1505
2018-03-14T12:02:29.433Z,1655
2018-03-14T12:03:29.440Z,1795
2018-03-14T12:04:29.296Z,1735
2018-03-14T12:05:28.892Z,1755
2018-03-14T12:06:29.163Z,1775
2018-03-14T12:07:29.439Z,775
2018-03-14T12:08:29.154Z,680
2018-03-14T12:09:29.414Z,1585
2018-03-14T12:10:28.643Z,1890
2018-03-14T12:11:28.882Z,1910
2018-03-14T12:12:28.959Z,1760
2018-03-14T12:13:29.150Z,1615
2018-03-14T12:14:28.609Z,1275
2018-03-14T12:15:29.144Z,1735
2018-03-14T12:16:28.879Z,1695
2018-03-14T12:17:28.608Z,1135
2018-03-14T12:18:29.151Z,1795
2018-03-14T12:19:29.160Z,1790
2018-03-14T12:20:29.132Z,1900
2018-03-14T12:21:28.868Z,890
2018-03-14T12:22:28.609Z,1495
2018-03-14T12:23:28.706Z,775
2018-03-14T12:24:28.607Z,490
2018-03-14T12:25:29.140Z,960
2018-03-14T12:26:29.218Z,515
2018-03-14T12:27:28.879Z,470
2018-03-14T12:28:29.146Z,590
2018-03-14T12:29:29.413Z,540
2018-03-14T12:30:29.154Z,590
2018-03-14T12:31:28.877Z,1370
2018-03-14T12:32:28.874Z,940
2018-03-14T12:33:28.392Z,650
2018-03-14T12:34:28.871Z,615
2018-03-14T12:35:28.608Z,620
2018-03-14T12:36:28.879Z,540
2018-03-14T12:37:28.866Z,595
2018-03-14T12:38:29.198Z,565
2018-03-14T12:39:29.392Z,625
2018-03-14T12:40:29.132Z,560
2018-03-14T12:41:28.592Z,495
2018-03-14T12:42:28.859Z,670
2018-03-14T12:43:28.587Z,895
2018-03-14T12:44:28.322Z,595
2018-03-14T12:45:28.586Z,630
2018-03-14T12:46:29.112Z,605
2018-03-14T12:47:29.379Z,570
2018-03-14T12:48:29.114Z,600
2018-03-14T12:49:28.304Z,995
2018-03-14T12:50:28.680Z,1575
2018-03-14T12:51:28.832Z,1680
2018-03-14T12:52:28.872Z,1685
2018-03-14T12:53:28.553Z,1690
2018-03-14T12:54:28.552Z,1670
2018-03-14T12:55:29.074Z,1690
2018-03-14T12:56:28.541Z,1685
2018-03-14T12:57:29.070Z,1670
2018-03-14T12:58:28.860Z,1650
2018-03-14T12:59:28.802Z,1615
2018-03-14T13:00:29.062Z,1590
2018-03-14T13:01:28.796Z,1440
2018-03-14T13:02:29.389Z,1585
2018-03-14T13:03:29.320Z,1600
2018-03-14T13:04:28.264Z,1625
2018-03-14T13:05:28.797Z,1625
2018-03-14T13:06:28.794Z,1635
2018-03-14T13:07:28.794Z,1610
2018-03-14T13:08:28.531Z,1590
2018-03-14T13:09:28.527Z,1590
2018-03-14T13:10:28.797Z,1575
2018-03-14T13:11:28.551Z,1585
2018-03-14T13:12:28.271Z,1590
2018-03-14T13:13:28.796Z,1605
2018-03-14T13:14:29.067Z,1485
2018-03-14T13:15:29.076Z,1460
2018-03-14T13:16:28.541Z,1520
2018-03-14T13:17:28.543Z,1435
2018-03-14T13:18:29.344Z,1135
2018-03-14T13:19:29.084Z,620
2018-03-14T13:20:28.825Z,1080
2018-03-14T13:21:29.159Z,1275
2018-03-14T13:22:28.557Z,1205
2018-03-14T13:23:28.820Z,900
2018-03-14T13:24:28.820Z,1295
2018-03-14T13:25:28.560Z,1395
2018-03-14T13:26:28.819Z,1125
2018-03-14T13:27:28.560Z,325
2018-03-14T13:28:29.429Z,1355
2018-03-14T13:29:28.823Z,1530
2018-03-14T13:30:28.611Z,1510
2018-03-14T13:31:28.828Z,1440
2018-03-14T13:32:28.563Z,1420
2018-03-14T13:33:29.367Z,1425
2018-03-14T13:34:28.826Z,1415
2018-03-14T13:35:28.825Z,1420
2018-03-14T13:36:29.104Z,1445
2018-03-14T13:37:29.095Z,1435
2018-03-14T13:38:28.894Z,1385
2018-03-14T13:39:29.104Z,1370
2018-03-14T13:40:29.103Z,1380
2018-03-14T13:41:28.568Z,1395
2018-03-14T13:42:28.564Z,1395
2018-03-14T13:43:28.824Z,1370
2018-03-14T13:44:28.833Z,1320
2018-03-14T13:45:29.031Z,1330
2018-03-14T13:46:28.846Z,1370
2018-03-14T13:47:28.333Z,1305
2018-03-14T13:48:28.831Z,1210
2018-03-14T13:49:28.832Z,1140
2018-03-14T13:50:28.845Z,1115
2018-03-14T13:51:28.837Z,1090
2018-03-14T13:52:29.099Z,1090
2018-03-14T13:53:29.367Z,1115
2018-03-14T13:54:29.104Z,1130
2018-03-14T13:55:28.846Z,1145
2018-03-14T13:56:29.110Z,1145
2018-03-14T13:57:28.858Z,1150
2018-03-14T13:58:29.262Z,1170
2018-03-14T13:59:28.859Z,1190
2018-03-14T14:00:29.382Z,1180
2018-03-14T14:01:29.117Z,1130
2018-03-14T14:02:28.582Z,1090
2018-03-14T14:03:29.115Z,1100
2018-03-14T14:04:28.858Z,1100
2018-03-14T14:05:28.851Z,1095
2018-03-14T14:06:29.116Z,1100
2018-03-14T14:07:28.588Z,1105
2018-03-14T14:08:28.595Z,1090
2018-03-14T14:09:28.598Z,1065